Hastings Natural History Reservation, California Weather observations

Data are for 10 minute period ending at time listed.
 Day   Time   Solar   Ave.   Ave.  Ave.  Vector  Max.   Baro.   Total    
  of    of     Rad.   Air    Rel.  Wind   Wind   Wind  Press.  Precip.   
Year   Day            Temp.  Hum.  Speed  Dir.   Gust                    
2015   (PST)  Kw/m2    F      %     mph   deg.    mph    mb.     in.     
-------------------------------------------------------------------------
 245    8:50   0.28   59.2    70    0.1   100     1.0   952.0    0.00 
 245    9:00   0.30   61.1    64    1.3   223     4.2   951.9    0.00 
 245    9:10   0.34   63.2    58    0.6   320     3.7   951.9    0.00 
 245    9:20   0.37   64.1    56    1.5   253     4.9   951.8    0.00 
 245    9:30   0.40   64.9    61    3.2   270     6.8   951.7    0.00 
 245    9:40   0.43   70.7    50    2.2   268     5.6   951.7    1.00 
 245    9:50   0.46   65.1    54    2.5   257     5.6   951.8    0.00 
 245   10:00   0.49   65.2    53    2.7   274     8.0   951.7    0.00 
 245   10:10   0.51   64.8    53    4.1   250     8.8   951.7    0.00 
 245   10:20   0.54   65.2    52    2.9   247     7.6   951.7    0.00 
 245   10:30   0.56   65.4    52    2.9   244     7.5   951.7    0.00 
 245   10:40   0.59   66.8    50    2.7   268     7.5   951.8    0.00 
 245   10:50   0.61   67.5    49    3.3   257     6.7   951.9    0.00 
 245   11:00   0.63   67.4    48    2.7   263    10.4   951.9    0.00 
 245   11:10   0.66   68.1    47    3.1   264     6.1   951.8    0.00 
 245   11:20   0.67   69.3    46    2.8   267     7.7   951.8    0.00 
 245   11:30   0.57   69.7    44    2.1   282     6.3   951.7    0.00 
 245   11:40   0.56   69.5    43    2.6   248     8.0   951.7    0.00 
 245   11:50   0.69   70.4    42    2.2   265     6.0   951.6    0.00 
 245   12:00   0.72   71.6    43    4.4   272    14.2   951.6    0.00 
 245   12:10   0.73   71.0    43    3.9   265    10.4   951.6    0.00 
 245   12:20   0.76   72.1    44    2.6   263     7.5   951.5    0.00 
 245   12:30   0.77   73.1    44    3.5   267     9.3   951.5    0.00 
 245   12:40   0.78   74.4    42    2.6   286     6.2   951.4    0.00 
 245   12:50   0.78   72.6    46    4.9   251    13.1   951.4    0.00 
 245   13:00   0.78   73.9    45    3.7   260    12.1   951.4    0.00 
 245   13:10   0.77   72.9    46    4.7   255    12.3   951.4    0.00 
 245   13:20   0.79   73.3    46    3.5   296    12.3   951.3    0.00 
 245   13:30   0.77   73.4    47    4.8   260    13.8   951.3    0.00 
 245   13:40   0.78   73.3    48    4.6   272    14.8   951.2    0.00 
 245   13:50   0.77   72.7    50    4.3   262    10.0   951.2    0.00 
 245   14:00   0.77   72.6    50    5.0   254    13.2   951.2    0.00 
 245   14:10   0.76   72.2    49    5.1   250    10.3   951.1    0.00 
 245   14:20   0.77   73.1    48    2.9   297    10.0   951.1    0.00 
 245   14:30   0.76   73.6    47    4.1   259    12.6   951.0    0.00 
 245   14:40   0.75   74.0    46    2.8   281    11.5   951.0    0.00 
 245   14:50   0.74   73.5    47    3.8   310     9.8   951.0    0.00 
 245   15:00   0.73   73.8    47    2.9   296     8.8   950.9    0.00 
 245   15:10   0.70   73.4    47    4.2   270    13.0   950.9    0.00 
 245   15:20   0.69   75.2    45    3.1   268     9.8   950.8    0.00 
 245   15:30   0.68   73.1    48    4.4   277    11.7   950.8    0.00 
 245   15:40   0.65   72.7    49    4.6   254    11.8   950.7    0.00 
 245   15:50   0.62   72.7    49    5.1   255    11.0   950.6    0.00 
 245   16:00   0.61   72.3    50    4.0   267    11.9   950.5    0.00 
 245   16:10   0.58   72.3    50    3.7   271    11.1   950.5    0.00 
 245   16:20   0.55   71.8    51    4.6   253    10.0   950.6    0.00 
 245   16:30   0.53   72.2    50    4.5   256    11.5   950.5    0.00 
 245   16:40   0.49   71.1    51    4.3   255    11.4   950.5    0.00 
 245   16:50   0.48   71.6    50    3.0   277     8.5   950.4    0.00 
 245   17:00   0.45   71.2    51    2.2   268     6.0   950.4    0.00 
 245   17:10   0.42   70.7    53    4.8   249    12.1   950.4    0.00 
 245   17:20   0.36   69.4    56    5.4   248    13.1   950.4    0.00 
 245   17:30   0.36   69.4    56    3.6   271    11.3   950.2    0.00 
 245   17:40   0.32   69.5    55    3.8   257    10.4   950.1    0.00 
 245   17:50   0.30   69.4    56    2.5   278    10.1   950.1    0.00 
 245   18:00   0.25   68.6    57    2.9   269     7.5   950.1    0.00 
 245   18:10   0.22   68.6    57    3.5   264    10.2   949.9    0.00 
 245   18:20   0.17   67.7    59    3.2   258    10.7   949.8    0.00 
 245   18:30   0.16   67.0    61    3.1   269     7.9   949.8    0.00 
 245   18:40   0.13   66.2    62    2.6   263     7.9   949.9    0.00 
 245   18:50   0.08   64.4    66    3.8   256    11.3   949.9    0.00 
 245   19:00   0.03   63.6    68    3.0   260     7.0   950.0    0.00 
 245   19:10   0.01   63.0    70    3.0   248     8.6   950.1    0.00 
 245   19:20   0.01   62.2    72    2.4   264     6.0   950.1    0.00 
 245   19:30   0.00   61.4    74    2.0   259     7.2   950.3    0.00 
 245   19:40   0.00   60.6    77    2.8   256     6.0   950.4    0.00 
 245   19:50   0.00   60.2    80    1.9   295     7.7   950.6    0.00 
 245   20:00   0.00   59.9    81    1.3   315     4.2   950.7    0.00 
 245   20:10   0.00   59.8    81    1.7   275     6.1   950.7    0.00 
 245   20:20   0.00   59.8    81    1.0   320     4.5   950.7    0.00 
 245   20:30   0.00   59.5    83    2.1   254     5.8   950.7    0.00 
 245   20:40   0.00   59.3    84    2.1   263     4.9   950.8    0.00 
 245   20:50   0.00   59.0    84    1.9   253     4.8   951.0    0.00 
 245   21:00   0.00   59.1    84    2.2   269     6.9   951.1    0.00 
 245   21:10   0.00   59.3    84    1.7   299     5.3   951.2    0.00 
 245   21:20   0.00   59.3    84    1.2   279     3.2   951.2    0.00 
 245   21:30   0.00   59.3    83    1.2   274     3.1   951.2    0.00 
 245   21:40   0.00   59.5    82    1.1     2     3.9   951.3    0.00 
 245   21:50   0.00   59.5    82    1.3   265     4.2   951.3    0.00 
 245   22:00   0.00   59.3    82    0.8   278     3.0   951.3    0.00 
 245   22:10   0.00   59.6    81    1.3   356     2.9   951.3    0.00 
 245   22:20   0.00   59.1    82    1.2   312     2.9   951.3    0.00 
 245   22:30   0.00   58.9    82    2.0   352     5.3   951.3    0.00 
 245   22:40   0.00   58.8    82    1.0   279     3.0   951.3    0.00 
 245   22:50   0.00   58.5    82    1.7   246     3.1   951.2    0.00 
 245   23:00   0.00   58.2    82    1.2   243     2.9   951.1    0.00 
 245   23:10   0.00   57.6    83    0.6    30     1.8   951.2    0.00 
 245   23:20   0.00   56.5    85    1.3    45     1.8   951.2    0.00 
 245   23:30   0.00   55.5    85    1.4    54     2.4   951.2    0.00 
 245   23:40   0.00   55.1    84    1.4    63     3.1   951.1    0.00 
 245   23:50   0.00   54.5    83    2.3    80     4.5   951.0    0.00 
 246    0:00   0.00   54.4    81    1.2    80     2.8   951.0    0.00 
 246    0:10   0.00   53.7    82    0.4   228     1.5   951.1    0.00 
 246    0:20   0.00   52.9    84    0.2    60     1.3   951.3    0.00 
 246    0:30   0.00   52.1    85    1.5    51     2.0   951.4    0.00 
 246    0:40   0.00   51.6    86    1.2    38     2.2   951.5    0.00 
 246    0:50   0.00   51.4    87    0.4    44     1.3   951.6    0.00 
 246    1:00   0.00   51.0    87    0.8    47     1.8   951.5    0.00 
 246    1:10   0.00   50.6    88    1.1    47     2.0   951.4    0.00 
 246    1:20   0.00   50.6    89    0.8    49     1.7   951.3    0.00 
 246    1:30   0.00   50.6    88    0.2    36     3.5   951.2    0.00 
 246    1:40   0.00   50.3    88    0.4   241     2.0   951.1    0.00 
 246    1:50   0.00   50.1    88    0.5   197     2.0   951.1    0.00 
 246    2:00   0.00   49.8    88    0.6   249     1.9   951.0    0.00 
 246    2:10   0.00   49.5    89    0.2   242     1.2   950.9    0.00 
 246    2:20   0.00   49.5    90    0.0   236     0.5   950.8    0.00 
 246    2:30   0.00   49.3    90    0.0   234     0.5   950.8    0.00 
 246    2:40   0.00   49.3    92    0.6    73     1.8   950.8    0.00 
 246    2:50   0.00   49.4    93    0.6    63     1.8   950.9    0.00 
 246    3:00   0.00   49.2    92    0.5   143     2.4   950.9    0.00 
 246    3:10   0.00   49.1    92    0.1   216     0.9   951.0    0.00 
 246    3:20   0.00   48.8    92    0.5   183     2.3   951.0    0.00 
 246    3:30   0.00   48.7    93    0.2   105     1.7   951.0    0.00 
 246    3:40   0.00   48.6    93    0.5   250     1.7   950.9    0.00 
 246    3:50   0.00   48.5    93    0.2   248     1.7   950.9    0.00 
 246    4:00   0.00   48.4    93    0.5   245     1.6   950.9    0.00 
 246    4:10   0.00   48.2    93    0.5   248     2.2   950.9    0.00 
 246    4:20   0.00   48.6    94    0.5   239     2.6   950.9    0.00 
 246    4:30   0.00   48.5    93    0.7   243     2.3   950.9    0.00 
 246    4:40   0.00   48.5    93    1.0   246     3.4   950.8    0.00 
 246    4:50   0.00   48.4    94    0.9   231     4.1   950.8    0.00 
 246    5:00   0.00   48.5    94    1.3   236     3.3   950.8    0.00 
 246    5:10   0.00   48.5    94    1.1   240     2.3   950.9    0.00 
 246    5:20   0.00   48.3    94    1.3   242     3.4   950.9    0.00 
 246    5:30   0.00   48.6    94    0.9   218     3.2   950.9    0.00 
 246    5:40   0.00   48.8    94    1.0   241     2.9   950.8    0.00 
 246    5:50   0.00   48.8    94    0.8   237     2.6   950.8    0.00 
 246    6:00   0.00   48.5    93    0.8   225     2.1   950.8    0.00 
 246    6:10   0.00   48.2    93    0.2   235     2.0   950.8    0.00 
 246    6:20   0.00   48.0    93    0.5    97     3.0   950.8    0.00 
 246    6:30   0.00   47.9    94    1.7   236     5.6   950.6    0.00 
 246    6:40   0.00   47.9    94    1.1   243     2.4   950.7    0.00 
 246    6:50   0.00   47.8    94    1.0   244     1.9   950.7    0.00 
 246    7:00   0.00   48.0    95    0.2   238     1.4   950.8    0.00 
 246    7:10   0.01   48.3    94    0.4   240     1.8   950.8    0.00 
 246    7:20   0.01   48.7    94    0.2   256     1.3   950.9    0.00 
 246    7:30   0.01   48.7    94    0.1   222     1.0   951.0    0.00 
 246    7:40   0.01   49.1    94    0.0   145     0.5   951.2    0.00 
 246    7:50   0.01   49.5    93    0.6    89     2.2   951.3    0.00 
 246    8:00   0.01   50.2    92    0.8    70     2.2   951.4    0.00 
 246    8:10   0.02   51.8    91    0.9    28     2.3   951.4    0.00 
 246    8:20   0.03   53.4    87    1.2    82     3.1   951.5    0.00 
 246    8:30   0.16   55.1    83    0.2    19     3.4   951.5    0.00 
 246    8:40   0.25   59.0    69    1.4   274     5.5   951.5    0.00 

Return to Hastings Natural History Reservation graphs page.


Western Regional Climate Center,wrcc@dri.edu